createdAt,value
2018-07-01T00:00:50.582Z,0.00
2018-07-01T00:01:50.574Z,0.00
2018-07-01T00:02:50.569Z,0.00
2018-07-01T00:03:50.559Z,0.00
2018-07-01T00:04:50.552Z,0.00
2018-07-01T00:05:50.543Z,0.00
2018-07-01T00:06:50.535Z,0.00
2018-07-01T00:07:50.529Z,0.00
2018-07-01T00:08:50.524Z,0.00
2018-07-01T00:09:50.517Z,0.00
2018-07-01T00:10:50.558Z,0.00
2018-07-01T00:11:50.496Z,0.00
2018-07-01T00:12:50.492Z,0.00
2018-07-01T00:13:50.486Z,0.00
2018-07-01T00:14:50.476Z,0.00
2018-07-01T00:15:50.470Z,0.00
2018-07-01T00:16:50.463Z,0.00
2018-07-01T00:17:50.453Z,0.00
2018-07-01T00:18:50.444Z,0.00
2018-07-01T00:19:50.437Z,0.00
2018-07-01T00:20:50.436Z,0.00
2018-07-01T00:21:50.420Z,0.00
2018-07-01T00:22:50.417Z,0.00
2018-07-01T00:23:50.414Z,0.00
2018-07-01T00:24:50.400Z,0.00
2018-07-01T00:25:50.391Z,0.00
2018-07-01T00:26:50.385Z,0.00
2018-07-01T00:27:50.384Z,0.00
2018-07-01T00:28:50.378Z,0.00
2018-07-01T00:29:50.363Z,0.00
2018-07-01T00:30:50.359Z,0.00
2018-07-01T00:31:50.350Z,0.00
2018-07-01T00:32:50.342Z,0.00
2018-07-01T00:33:50.336Z,0.00
2018-07-01T00:34:50.323Z,0.00
2018-07-01T00:35:50.319Z,0.00
2018-07-01T00:36:50.311Z,0.00
2018-07-01T00:37:50.304Z,0.00
2018-07-01T00:38:50.294Z,0.00
2018-07-01T00:39:50.289Z,0.00
2018-07-01T00:40:50.286Z,0.00
2018-07-01T00:41:50.273Z,0.00
2018-07-01T00:42:50.271Z,0.00
2018-07-01T00:43:50.255Z,0.00
2018-07-01T00:44:50.251Z,0.00
2018-07-01T00:45:50.244Z,0.00
2018-07-01T00:46:50.235Z,0.00
2018-07-01T00:47:50.231Z,0.00
2018-07-01T00:48:50.225Z,0.00
2018-07-01T00:49:50.214Z,0.00
2018-07-01T00:50:50.210Z,0.00
2018-07-01T00:51:50.196Z,0.00
2018-07-01T00:52:50.194Z,0.00
2018-07-01T00:53:50.184Z,0.00
2018-07-01T00:54:50.174Z,0.00
2018-07-01T00:55:50.169Z,0.00
2018-07-01T00:56:50.158Z,0.00
2018-07-01T00:57:50.149Z,0.00
2018-07-01T00:58:50.144Z,0.00
2018-07-01T00:59:50.137Z,0.00
2018-07-01T01:00:50.125Z,0.00
2018-07-01T01:01:50.122Z,0.00
2018-07-01T01:02:50.109Z,0.00
2018-07-01T01:03:50.097Z,0.00
2018-07-01T01:04:50.091Z,0.00
2018-07-01T01:05:50.090Z,0.00
2018-07-01T01:06:50.085Z,0.00
2018-07-01T01:07:50.076Z,0.00
2018-07-01T01:08:50.068Z,0.00
2018-07-01T01:09:50.060Z,0.00
2018-07-01T01:10:50.047Z,0.00
2018-07-01T01:11:50.046Z,0.00
2018-07-01T01:12:50.040Z,0.00
2018-07-01T01:13:50.029Z,0.00
2018-07-01T01:14:50.019Z,0.00
2018-07-01T01:15:50.011Z,0.00
2018-07-01T01:16:50.007Z,0.00
2018-07-01T01:17:49.999Z,0.00
2018-07-01T01:18:49.986Z,0.00
2018-07-01T01:19:49.983Z,0.00
2018-07-01T01:20:49.974Z,0.00
2018-07-01T01:21:49.961Z,0.00
2018-07-01T01:22:49.955Z,0.00
2018-07-01T01:23:49.947Z,0.00
2018-07-01T01:24:49.938Z,0.00
2018-07-01T01:25:49.931Z,0.00
2018-07-01T01:26:49.923Z,0.00
2018-07-01T01:27:49.917Z,0.00
2018-07-01T01:28:49.913Z,0.00
2018-07-01T01:29:49.902Z,0.00
2018-07-01T01:30:49.896Z,0.00
2018-07-01T01:31:49.888Z,0.00
2018-07-01T01:32:49.886Z,0.00
2018-07-01T01:33:49.866Z,0.00
2018-07-01T01:34:49.868Z,0.00
2018-07-01T01:35:49.856Z,0.00
2018-07-01T01:36:49.847Z,0.00
2018-07-01T01:37:49.839Z,0.00
2018-07-01T01:38:49.831Z,0.00
2018-07-01T01:39:49.823Z,0.00
2018-07-01T01:40:49.819Z,0.00
2018-07-01T01:41:49.814Z,0.00
2018-07-01T01:42:49.798Z,0.00
2018-07-01T01:43:49.790Z,0.00
2018-07-01T01:44:49.785Z,0.00
2018-07-01T01:45:49.774Z,0.00
2018-07-01T01:46:49.770Z,0.00
2018-07-01T01:47:49.764Z,0.00
2018-07-01T01:48:49.754Z,0.00
2018-07-01T01:49:49.746Z,0.00
2018-07-01T01:50:49.738Z,0.00
2018-07-01T01:51:49.731Z,0.00
2018-07-01T01:52:49.720Z,0.00
2018-07-01T01:53:49.713Z,0.00
2018-07-01T01:54:49.705Z,0.00
2018-07-01T01:55:49.691Z,0.00
2018-07-01T01:56:49.689Z,0.00
2018-07-01T01:57:49.681Z,0.00
2018-07-01T01:58:49.676Z,0.00
2018-07-01T01:59:49.661Z,0.00
2018-07-01T02:00:49.653Z,0.00
2018-07-01T02:01:49.652Z,0.00
2018-07-01T02:02:49.643Z,0.00
2018-07-01T02:03:49.638Z,0.00
2018-07-01T02:04:49.629Z,0.00
2018-07-01T02:05:49.618Z,0.00
2018-07-01T02:06:49.610Z,0.00
2018-07-01T02:07:49.600Z,0.00
2018-07-01T02:08:49.596Z,0.00
2018-07-01T02:09:49.587Z,0.00
2018-07-01T02:10:49.575Z,0.00
2018-07-01T02:11:49.567Z,0.00
2018-07-01T02:12:49.563Z,0.00
2018-07-01T02:13:49.561Z,0.00
2018-07-01T02:14:49.554Z,0.00
2018-07-01T02:15:49.541Z,0.00
2018-07-01T02:16:49.576Z,0.00
2018-07-01T02:17:49.522Z,0.00
2018-07-01T02:18:49.514Z,0.00
2018-07-01T02:19:49.502Z,0.00
2018-07-01T02:20:49.500Z,0.00
2018-07-01T02:21:49.491Z,0.00
2018-07-01T02:22:49.480Z,0.00
2018-07-01T02:23:49.475Z,0.00
2018-07-01T02:24:49.463Z,0.00
2018-07-01T02:25:49.459Z,0.00
2018-07-01T02:26:49.454Z,0.00
2018-07-01T02:27:49.444Z,0.00
2018-07-01T02:28:49.434Z,0.00
2018-07-01T02:29:49.429Z,0.00
2018-07-01T02:30:49.418Z,0.00
2018-07-01T02:31:49.410Z,0.00
2018-07-01T02:32:49.394Z,0.00
2018-07-01T02:33:49.393Z,0.00
2018-07-01T02:34:49.384Z,0.00
2018-07-01T02:35:49.375Z,0.00
2018-07-01T02:36:49.368Z,0.00
2018-07-01T02:37:49.361Z,0.00
2018-07-01T02:38:49.349Z,0.00
2018-07-01T02:39:49.345Z,0.00
2018-07-01T02:40:49.335Z,0.00
2018-07-01T02:41:49.323Z,0.00
2018-07-01T02:42:49.320Z,0.00
2018-07-01T02:43:49.313Z,0.00
2018-07-01T02:44:49.306Z,0.00
2018-07-01T02:45:49.297Z,0.00
2018-07-01T02:46:49.288Z,0.00
2018-07-01T02:47:49.280Z,0.00
2018-07-01T02:48:49.268Z,0.00
2018-07-01T02:49:49.263Z,0.00
2018-07-01T02:50:49.253Z,0.00
2018-07-01T02:51:49.247Z,0.00
2018-07-01T02:52:49.243Z,0.00
2018-07-01T02:53:49.245Z,0.00
2018-07-01T02:54:49.220Z,0.00
2018-07-01T02:55:49.224Z,0.00
2018-07-01T02:56:49.206Z,0.00
2018-07-01T02:57:49.201Z,0.00
2018-07-01T02:58:49.191Z,0.00
2018-07-01T02:59:49.183Z,0.00
2018-07-01T03:00:49.177Z,0.00
2018-07-01T03:01:49.165Z,0.00
2018-07-01T03:02:49.155Z,0.00
2018-07-01T03:03:49.153Z,0.00
2018-07-01T03:04:49.141Z,0.00
2018-07-01T03:05:49.134Z,0.00
2018-07-01T03:06:49.123Z,0.00
2018-07-01T03:07:49.118Z,0.00
2018-07-01T03:08:49.114Z,0.00
2018-07-01T03:09:49.100Z,0.00
2018-07-01T03:10:49.094Z,0.00
2018-07-01T03:11:49.084Z,0.00
2018-07-01T03:12:49.078Z,0.00
2018-07-01T03:13:49.067Z,0.00
2018-07-01T03:14:49.059Z,0.00
2018-07-01T03:15:49.048Z,0.00
2018-07-01T03:16:49.042Z,0.00
2018-07-01T03:17:49.075Z,0.00
2018-07-01T03:18:49.028Z,0.00
2018-07-01T03:19:49.021Z,0.00
2018-07-01T03:20:49.005Z,0.00
2018-07-01T03:21:49.003Z,0.00
2018-07-01T03:22:48.992Z,0.00
2018-07-01T03:23:48.988Z,0.00
2018-07-01T03:24:48.976Z,0.00
2018-07-01T03:25:48.970Z,0.00
2018-07-01T03:26:48.957Z,0.00
2018-07-01T03:27:48.949Z,0.00
2018-07-01T03:28:48.943Z,0.00
2018-07-01T03:29:48.936Z,0.00
2018-07-01T03:30:49.005Z,0.00
2018-07-01T03:31:48.921Z,0.00
2018-07-01T03:32:48.922Z,0.00
2018-07-01T03:33:48.899Z,0.00
2018-07-01T03:34:48.897Z,0.00
2018-07-01T03:35:48.888Z,0.00
2018-07-01T03:36:48.880Z,0.00
2018-07-01T03:37:48.871Z,0.00
2018-07-01T03:38:48.859Z,0.00
2018-07-01T03:39:48.855Z,0.00
2018-07-01T03:40:48.849Z,0.00
2018-07-01T03:41:48.833Z,0.00
2018-07-01T03:42:48.828Z,0.00
2018-07-01T03:43:48.821Z,0.00
2018-07-01T03:44:48.810Z,0.00
2018-07-01T03:45:48.802Z,0.00
2018-07-01T03:46:48.794Z,0.00
2018-07-01T03:47:48.784Z,0.00
2018-07-01T03:48:48.775Z,0.00
2018-07-01T03:49:48.769Z,0.00
2018-07-01T03:50:48.762Z,0.00
2018-07-01T03:51:48.754Z,0.00
2018-07-01T03:52:48.748Z,0.00
2018-07-01T03:53:48.737Z,0.00
2018-07-01T03:54:48.730Z,0.00
2018-07-01T03:55:48.719Z,0.00
2018-07-01T03:56:48.707Z,0.00
2018-07-01T03:57:48.867Z,0.00
2018-07-01T03:58:48.699Z,0.00
2018-07-01T03:59:48.693Z,0.00
2018-07-01T04:00:48.683Z,0.00
2018-07-01T04:01:48.671Z,0.00
2018-07-01T04:02:48.664Z,0.00
2018-07-01T04:03:48.651Z,0.00
2018-07-01T04:04:48.642Z,0.00
2018-07-01T04:05:48.638Z,0.00
2018-07-01T04:06:48.629Z,0.00
2018-07-01T04:07:48.624Z,0.00
2018-07-01T04:08:48.608Z,0.00
2018-07-01T04:09:48.601Z,0.00
2018-07-01T04:10:48.593Z,0.00
2018-07-01T04:11:48.586Z,0.00
2018-07-01T04:12:48.583Z,0.00
2018-07-01T04:13:48.566Z,0.00
2018-07-01T04:14:48.560Z,0.00
2018-07-01T04:15:48.554Z,0.00
2018-07-01T04:16:48.538Z,0.00
2018-07-01T04:17:48.535Z,0.00
2018-07-01T04:18:48.527Z,0.00
2018-07-01T04:19:48.519Z,0.00
2018-07-01T04:20:48.506Z,0.00
2018-07-01T04:21:48.499Z,0.00
2018-07-01T04:22:48.495Z,0.00
2018-07-01T04:23:48.487Z,0.00
2018-07-01T04:24:48.477Z,0.00
2018-07-01T04:25:48.470Z,0.00
2018-07-01T04:26:48.458Z,0.00
2018-07-01T04:27:48.450Z,0.00
2018-07-01T04:28:48.440Z,0.00
2018-07-01T04:29:48.434Z,0.00
2018-07-01T04:30:48.415Z,0.00
2018-07-01T04:31:48.417Z,0.00
2018-07-01T04:32:48.411Z,0.00
2018-07-01T04:33:48.398Z,0.00
2018-07-01T04:34:48.395Z,0.00
2018-07-01T04:35:48.381Z,0.00
2018-07-01T04:36:48.374Z,0.00
2018-07-01T04:37:48.360Z,0.00
2018-07-01T04:38:48.360Z,0.00
2018-07-01T04:39:48.350Z,0.00
2018-07-01T04:40:48.340Z,0.00
2018-07-01T04:41:48.335Z,0.00
2018-07-01T04:42:48.325Z,0.00
2018-07-01T04:43:48.315Z,0.00
2018-07-01T04:44:48.308Z,0.00
2018-07-01T04:45:48.297Z,0.00
2018-07-01T04:46:48.287Z,0.00
2018-07-01T04:47:48.279Z,0.00
2018-07-01T04:48:48.271Z,0.00
2018-07-01T04:49:48.265Z,0.00
2018-07-01T04:50:48.253Z,0.00
2018-07-01T04:51:48.246Z,0.00
2018-07-01T04:52:48.233Z,0.00
2018-07-01T04:53:48.232Z,0.00
2018-07-01T04:54:48.230Z,0.00
2018-07-01T04:55:48.212Z,0.00
2018-07-01T04:56:48.207Z,0.00
2018-07-01T04:57:48.197Z,0.00
2018-07-01T04:58:48.192Z,0.00
2018-07-01T04:59:48.175Z,0.00
2018-07-01T05:00:48.173Z,0.00
2018-07-01T05:01:48.173Z,0.00
2018-07-01T05:02:48.152Z,0.00
2018-07-01T05:03:48.145Z,0.00
2018-07-01T05:04:48.133Z,0.00
2018-07-01T05:05:48.126Z,0.00
2018-07-01T05:06:48.126Z,0.00
2018-07-01T05:07:48.112Z,0.00
2018-07-01T05:08:48.102Z,0.00
2018-07-01T05:09:48.090Z,0.00
2018-07-01T05:10:48.091Z,0.00
2018-07-01T05:11:48.073Z,0.00
2018-07-01T05:12:48.066Z,0.00
2018-07-01T05:13:48.058Z,0.00
2018-07-01T05:14:48.053Z,0.00
2018-07-01T05:15:48.046Z,0.00
2018-07-01T05:16:48.031Z,0.00
2018-07-01T05:17:48.020Z,0.00
2018-07-01T05:18:48.014Z,0.00
2018-07-01T05:19:48.009Z,0.00
2018-07-01T05:20:48.000Z,0.00
2018-07-01T05:21:47.987Z,5.63
2018-07-01T05:22:47.979Z,5.63
2018-07-01T05:23:47.973Z,5.63
2018-07-01T05:24:47.961Z,5.63
2018-07-01T05:25:47.950Z,5.63
2018-07-01T05:26:47.945Z,5.63
2018-07-01T05:27:47.933Z,5.63
2018-07-01T05:28:47.931Z,5.63
2018-07-01T05:29:47.920Z,5.63
2018-07-01T05:30:47.914Z,5.63
2018-07-01T05:31:47.902Z,5.63
2018-07-01T05:32:47.896Z,5.63
2018-07-01T05:33:47.911Z,5.63
2018-07-01T05:34:47.876Z,5.63
2018-07-01T05:35:47.879Z,5.63
2018-07-01T05:36:47.861Z,5.63
2018-07-01T05:37:47.850Z,5.63
2018-07-01T05:38:47.843Z,5.63
2018-07-01T05:39:47.835Z,5.63
2018-07-01T05:40:47.823Z,5.63
2018-07-01T05:41:47.813Z,5.63
2018-07-01T05:42:47.807Z,5.63
2018-07-01T05:43:47.797Z,5.63
2018-07-01T05:44:47.793Z,5.63
2018-07-01T05:45:47.781Z,5.63
2018-07-01T05:46:47.776Z,5.63
2018-07-01T05:47:47.770Z,5.63
2018-07-01T05:48:47.758Z,5.63
2018-07-01T05:49:47.748Z,5.63
2018-07-01T05:50:47.740Z,5.63
2018-07-01T05:51:47.735Z,5.63
2018-07-01T05:52:47.722Z,5.63
2018-07-01T05:53:47.713Z,5.63
2018-07-01T05:54:47.713Z,5.63
2018-07-01T05:55:47.697Z,5.63
2018-07-01T05:56:47.687Z,5.63
2018-07-01T05:57:47.677Z,5.63
2018-07-01T05:58:47.676Z,5.63
2018-07-01T05:59:47.661Z,5.63
2018-07-01T06:00:47.649Z,5.63
2018-07-01T06:01:47.644Z,11.25
2018-07-01T06:02:47.639Z,16.88
2018-07-01T06:03:47.626Z,28.13
2018-07-01T06:04:47.628Z,39.38
2018-07-01T06:05:47.610Z,39.38
2018-07-01T06:06:47.608Z,39.38
2018-07-01T06:07:47.597Z,39.38
2018-07-01T06:08:47.641Z,39.38
2018-07-01T06:09:47.573Z,39.38
2018-07-01T06:10:47.567Z,39.38
2018-07-01T06:11:47.563Z,39.38
2018-07-01T06:12:47.547Z,39.38
2018-07-01T06:13:47.539Z,45.00
2018-07-01T06:14:47.537Z,45.00
2018-07-01T06:15:47.534Z,45.00
2018-07-01T06:16:47.610Z,45.00
2018-07-01T06:17:47.513Z,45.00
2018-07-01T06:18:47.507Z,45.00
2018-07-01T06:19:47.502Z,45.00
2018-07-01T06:20:47.482Z,45.00
2018-07-01T06:21:47.480Z,45.00
2018-07-01T06:22:47.468Z,45.00
2018-07-01T06:23:47.468Z,45.00
2018-07-01T06:24:47.457Z,45.00
2018-07-01T06:25:47.448Z,45.00
2018-07-01T06:26:47.437Z,50.63
2018-07-01T06:27:47.426Z,50.63
2018-07-01T06:28:47.423Z,50.63
2018-07-01T06:29:47.409Z,50.63
2018-07-01T06:30:47.400Z,50.63
2018-07-01T06:31:47.399Z,50.63
2018-07-01T06:32:47.388Z,50.63
2018-07-01T06:33:47.386Z,50.63
2018-07-01T06:34:47.378Z,50.63
2018-07-01T06:35:47.367Z,50.63
2018-07-01T06:36:47.363Z,50.63
2018-07-01T06:37:47.352Z,50.63
2018-07-01T06:38:47.344Z,50.63
2018-07-01T06:39:47.339Z,50.63
2018-07-01T06:40:47.335Z,50.63
2018-07-01T06:41:47.321Z,50.63
2018-07-01T06:42:47.312Z,50.63
2018-07-01T06:43:47.315Z,50.63
2018-07-01T06:44:47.297Z,50.63
2018-07-01T06:45:47.291Z,56.25
2018-07-01T06:46:47.293Z,50.63
2018-07-01T06:47:47.276Z,56.25
2018-07-01T06:48:47.267Z,56.25
2018-07-01T06:49:47.264Z,56.25
2018-07-01T06:50:47.258Z,56.25
2018-07-01T06:51:47.246Z,56.25
2018-07-01T06:52:47.244Z,56.25
2018-07-01T06:53:47.239Z,56.25
2018-07-01T06:54:47.229Z,56.25
2018-07-01T06:55:47.224Z,56.25
2018-07-01T06:56:47.217Z,56.25
2018-07-01T06:57:47.207Z,56.25
2018-07-01T06:58:47.199Z,56.25
2018-07-01T06:59:47.195Z,56.25
2018-07-01T07:00:47.185Z,56.25
2018-07-01T07:01:47.178Z,56.25
2018-07-01T07:02:47.172Z,56.25
2018-07-01T07:03:47.168Z,56.25
2018-07-01T07:04:47.162Z,56.25
2018-07-01T07:05:47.155Z,56.25
2018-07-01T07:06:47.147Z,56.25
2018-07-01T07:07:47.155Z,56.25
2018-07-01T07:08:47.138Z,56.25
2018-07-01T07:09:47.126Z,56.25
2018-07-01T07:10:47.120Z,56.25
2018-07-01T07:11:47.160Z,61.88
2018-07-01T07:12:47.109Z,61.88
2018-07-01T07:13:47.102Z,61.88
2018-07-01T07:14:47.096Z,61.88
2018-07-01T07:15:47.093Z,61.88
2018-07-01T07:16:47.078Z,61.88
2018-07-01T07:17:47.082Z,61.88
2018-07-01T07:18:47.071Z,61.88
2018-07-01T07:19:47.066Z,61.88
2018-07-01T07:20:47.060Z,61.88
2018-07-01T07:21:47.053Z,61.88
2018-07-01T07:22:47.041Z,61.88
2018-07-01T07:23:47.041Z,61.88
2018-07-01T07:24:47.033Z,61.88
2018-07-01T07:25:47.030Z,61.88
2018-07-01T07:26:47.019Z,61.88
2018-07-01T07:27:47.018Z,61.88
2018-07-01T07:28:47.015Z,61.88
2018-07-01T07:29:46.999Z,61.88
2018-07-01T07:30:46.998Z,67.50
2018-07-01T07:31:46.992Z,67.50
2018-07-01T07:32:46.990Z,67.50
2018-07-01T07:33:46.979Z,67.50
2018-07-01T07:34:46.974Z,67.50
2018-07-01T07:35:46.966Z,67.50
2018-07-01T07:36:46.964Z,67.50
2018-07-01T07:37:46.951Z,67.50
2018-07-01T07:38:46.948Z,73.13
2018-07-01T07:39:46.939Z,78.75
2018-07-01T07:40:46.937Z,73.13
2018-07-01T07:41:46.932Z,56.25
2018-07-01T07:42:46.930Z,33.75
2018-07-01T07:43:46.916Z,50.63
2018-07-01T07:44:46.980Z,45.00
2018-07-01T07:45:46.912Z,56.25
2018-07-01T07:46:46.903Z,45.00
2018-07-01T07:47:46.901Z,50.63
2018-07-01T07:48:46.891Z,56.25
2018-07-01T07:49:46.887Z,56.25
2018-07-01T07:50:46.877Z,45.00
2018-07-01T07:51:46.871Z,56.25
2018-07-01T07:52:46.869Z,61.88
2018-07-01T07:53:46.862Z,73.13
2018-07-01T07:54:46.858Z,67.50
2018-07-01T07:55:46.854Z,61.88
2018-07-01T07:56:46.851Z,61.88
2018-07-01T07:57:46.838Z,56.25
2018-07-01T07:58:46.838Z,45.00
2018-07-01T07:59:46.830Z,33.75
2018-07-01T08:00:46.824Z,33.75
2018-07-01T08:01:46.822Z,33.75
2018-07-01T08:02:46.807Z,33.75
2018-07-01T08:03:46.803Z,33.75
2018-07-01T08:04:46.803Z,33.75
2018-07-01T08:05:46.791Z,33.75
2018-07-01T08:06:46.795Z,33.75
2018-07-01T08:07:46.787Z,33.75
2018-07-01T08:08:46.777Z,33.75
2018-07-01T08:09:46.768Z,33.75
2018-07-01T08:10:46.762Z,33.75
2018-07-01T08:11:46.758Z,50.63
2018-07-01T08:12:46.822Z,33.75
2018-07-01T08:13:46.749Z,45.00
2018-07-01T08:14:46.745Z,67.50
2018-07-01T08:15:46.733Z,33.75
2018-07-01T08:16:46.740Z,33.75
2018-07-01T08:17:46.724Z,28.13
2018-07-01T08:18:46.716Z,28.13
2018-07-01T08:19:46.712Z,33.75
2018-07-01T08:20:46.708Z,39.38
2018-07-01T08:21:46.698Z,56.25
2018-07-01T08:22:46.694Z,50.63
2018-07-01T08:23:46.690Z,39.38
2018-07-01T08:24:46.692Z,39.38
2018-07-01T08:25:46.679Z,45.00
2018-07-01T08:26:46.673Z,50.63
2018-07-01T08:27:46.668Z,61.88
2018-07-01T08:28:46.663Z,56.25
2018-07-01T08:29:46.652Z,56.25
2018-07-01T08:30:46.643Z,56.25
2018-07-01T08:31:46.647Z,56.25
2018-07-01T08:32:46.641Z,67.50
2018-07-01T08:33:46.630Z,73.13
2018-07-01T08:34:46.630Z,61.88
2018-07-01T08:35:46.622Z,61.88
2018-07-01T08:36:46.622Z,61.88
2018-07-01T08:37:46.611Z,56.25
2018-07-01T08:38:46.600Z,61.88
2018-07-01T08:39:46.598Z,78.75
2018-07-01T08:40:46.595Z,78.75
2018-07-01T08:41:46.585Z,84.38
2018-07-01T08:42:46.583Z,78.75
2018-07-01T08:43:46.575Z,78.75
2018-07-01T08:44:46.571Z,56.25
2018-07-01T08:45:46.562Z,73.13
2018-07-01T08:46:46.569Z,61.88
2018-07-01T08:47:46.550Z,56.25
2018-07-01T08:48:46.549Z,78.75
2018-07-01T08:49:46.539Z,78.75
2018-07-01T08:50:46.540Z,78.75
2018-07-01T08:51:46.529Z,78.75
2018-07-01T08:52:46.639Z,78.75
2018-07-01T08:53:46.521Z,78.75
2018-07-01T08:54:46.525Z,78.75
2018-07-01T08:55:46.513Z,78.75
2018-07-01T08:56:46.510Z,78.75
2018-07-01T08:57:46.502Z,78.75
2018-07-01T08:58:46.492Z,78.75
2018-07-01T08:59:46.491Z,78.75
2018-07-01T09:00:46.480Z,78.75
2018-07-01T09:01:46.472Z,78.75
2018-07-01T09:02:46.478Z,78.75
2018-07-01T09:03:46.471Z,78.75
2018-07-01T09:04:46.460Z,78.75
2018-07-01T09:05:46.457Z,78.75
2018-07-01T09:06:46.453Z,78.75
2018-07-01T09:07:46.449Z,78.75
2018-07-01T09:08:46.483Z,78.75
2018-07-01T09:09:46.429Z,78.75
2018-07-01T09:10:46.436Z,39.38
2018-07-01T09:11:46.429Z,78.75
2018-07-01T09:12:46.419Z,78.75
2018-07-01T09:13:46.416Z,78.75
2018-07-01T09:14:46.413Z,78.75
2018-07-01T09:15:46.407Z,78.75
2018-07-01T09:16:46.436Z,78.75
2018-07-01T09:17:46.393Z,78.75
2018-07-01T09:18:46.396Z,78.75
2018-07-01T09:19:46.389Z,78.75
2018-07-01T09:20:46.381Z,78.75
2018-07-01T09:21:46.380Z,78.75
2018-07-01T09:22:46.376Z,78.75
2018-07-01T09:23:46.373Z,78.75
2018-07-01T09:24:46.360Z,78.75
2018-07-01T09:25:46.358Z,78.75
2018-07-01T09:26:46.352Z,28.13
2018-07-01T09:27:46.349Z,78.75
2018-07-01T09:28:46.365Z,78.75
2018-07-01T09:29:46.338Z,78.75
2018-07-01T09:30:46.335Z,78.75
2018-07-01T09:31:46.332Z,78.75
2018-07-01T09:32:46.324Z,78.75
2018-07-01T09:33:46.315Z,78.75
2018-07-01T09:34:46.395Z,78.75
2018-07-01T09:35:46.308Z,78.75
2018-07-01T09:36:46.306Z,78.75
2018-07-01T09:37:46.300Z,78.75
2018-07-01T09:38:46.297Z,78.75
2018-07-01T09:39:46.296Z,78.75
2018-07-01T09:40:46.293Z,78.75
2018-07-01T09:41:46.281Z,78.75
2018-07-01T09:42:46.275Z,78.75
2018-07-01T09:43:46.269Z,78.75
2018-07-01T09:44:46.267Z,78.75
2018-07-01T09:45:46.258Z,78.75
2018-07-01T09:46:46.259Z,78.75
2018-07-01T09:47:46.254Z,78.75
2018-07-01T09:48:46.250Z,78.75
2018-07-01T09:49:46.250Z,78.75
2018-07-01T09:50:46.287Z,78.75
2018-07-01T09:51:46.237Z,78.75
2018-07-01T09:52:46.227Z,78.75
2018-07-01T09:53:46.225Z,78.75
2018-07-01T09:54:46.222Z,78.75
2018-07-01T09:55:46.212Z,78.75
2018-07-01T09:56:46.214Z,78.75
2018-07-01T09:57:46.204Z,78.75
2018-07-01T09:58:46.202Z,78.75
2018-07-01T09:59:46.205Z,78.75
2018-07-01T10:00:46.190Z,78.75
2018-07-01T10:01:46.187Z,78.75
2018-07-01T10:02:46.180Z,78.75
2018-07-01T10:03:46.177Z,78.75
2018-07-01T10:04:46.177Z,78.75
2018-07-01T10:05:46.166Z,78.75
2018-07-01T10:06:46.168Z,78.75
2018-07-01T10:07:46.157Z,78.75
2018-07-01T10:08:46.159Z,78.75
2018-07-01T10:09:46.150Z,78.75
2018-07-01T10:10:46.142Z,78.75
2018-07-01T10:11:46.140Z,78.75
2018-07-01T10:12:46.139Z,78.75
2018-07-01T10:13:46.132Z,78.75
2018-07-01T10:14:46.126Z,84.38
2018-07-01T10:15:46.124Z,84.38
2018-07-01T10:17:46.119Z,84.38
2018-07-01T10:18:46.133Z,84.38
2018-07-01T10:19:46.103Z,84.38
2018-07-01T10:20:46.103Z,84.38
2018-07-01T10:21:46.095Z,84.38
2018-07-01T10:22:46.092Z,84.38
2018-07-01T10:24:07.098Z,84.38
2018-07-01T10:24:46.084Z,84.38
2018-07-01T10:25:46.073Z,84.38
2018-07-01T10:26:46.073Z,84.38
2018-07-01T10:27:46.071Z,84.38
2018-07-01T10:28:46.065Z,84.38
2018-07-01T10:30:07.063Z,84.38
2018-07-01T10:30:46.055Z,84.38
2018-07-01T10:31:46.050Z,84.38
2018-07-01T10:32:46.045Z,90.00
2018-07-01T10:33:46.040Z,90.00
2018-07-01T10:34:46.044Z,90.00
2018-07-01T10:36:07.040Z,84.38
2018-07-01T10:36:46.030Z,84.38
2018-07-01T10:37:46.033Z,84.38
2018-07-01T10:38:46.024Z,84.38
2018-07-01T10:39:46.012Z,84.38
2018-07-01T10:40:46.011Z,84.38
2018-07-01T10:42:07.010Z,84.38
2018-07-01T10:42:46.008Z,90.00
2018-07-01T10:43:45.999Z,90.00
2018-07-01T10:44:46.005Z,90.00
2018-07-01T10:45:46.054Z,90.00
2018-07-01T10:46:45.994Z,90.00
2018-07-01T10:48:06.989Z,90.00
2018-07-01T10:48:45.977Z,90.00
2018-07-01T10:49:45.971Z,90.00
2018-07-01T10:50:45.966Z,90.00
2018-07-01T10:51:46.030Z,90.00
2018-07-01T10:52:45.963Z,90.00
2018-07-01T10:54:06.967Z,90.00
2018-07-01T10:54:45.955Z,90.00
2018-07-01T10:55:45.946Z,90.00
2018-07-01T10:56:45.949Z,90.00
2018-07-01T10:57:45.942Z,95.63
2018-07-01T10:58:45.940Z,95.63
2018-07-01T11:00:06.942Z,95.63
2018-07-01T11:00:45.932Z,95.63
2018-07-01T11:01:45.928Z,95.63
2018-07-01T11:02:45.920Z,95.63
2018-07-01T11:03:45.921Z,95.63
2018-07-01T11:04:45.917Z,95.63
2018-07-01T11:06:07.054Z,95.63
2018-07-01T11:06:45.906Z,95.63
2018-07-01T11:07:45.908Z,95.63
2018-07-01T11:08:45.896Z,95.63
2018-07-01T11:09:45.896Z,95.63
2018-07-01T11:10:45.890Z,95.63
2018-07-01T11:12:06.896Z,95.63
2018-07-01T11:12:45.883Z,95.63
2018-07-01T11:13:45.882Z,95.63
2018-07-01T11:14:45.875Z,101.25
2018-07-01T11:15:45.873Z,101.25
2018-07-01T11:16:45.867Z,101.25
2018-07-01T11:18:06.875Z,101.25
2018-07-01T11:18:45.861Z,101.25
2018-07-01T11:19:45.854Z,101.25
2018-07-01T11:20:45.851Z,101.25
2018-07-01T11:21:45.847Z,101.25
2018-07-01T11:22:45.844Z,101.25
2018-07-01T11:24:06.857Z,101.25
2018-07-01T11:24:45.836Z,101.25
2018-07-01T11:25:45.835Z,101.25
2018-07-01T11:26:45.918Z,101.25
2018-07-01T11:27:45.824Z,101.25
2018-07-01T11:28:45.825Z,101.25
2018-07-01T11:30:06.827Z,101.25
2018-07-01T11:30:45.816Z,106.88
2018-07-01T11:31:45.814Z,106.88
2018-07-01T11:32:45.861Z,106.88
2018-07-01T11:33:45.808Z,106.88
2018-07-01T11:34:45.804Z,106.88
2018-07-01T11:36:06.812Z,106.88
2018-07-01T11:36:45.802Z,106.88
2018-07-01T11:37:45.801Z,106.88
2018-07-01T11:38:45.795Z,106.88
2018-07-01T11:39:45.791Z,106.88
2018-07-01T11:40:45.781Z,106.88
2018-07-01T11:42:06.785Z,106.88
2018-07-01T11:42:45.781Z,106.88
2018-07-01T11:43:45.771Z,106.88
2018-07-01T11:44:45.774Z,106.88
2018-07-01T11:45:45.766Z,112.50
2018-07-01T11:46:45.764Z,112.50
2018-07-01T11:48:06.771Z,112.50
2018-07-01T11:48:45.757Z,112.50
2018-07-01T11:49:45.752Z,112.50
2018-07-01T11:50:45.748Z,112.50
2018-07-01T11:51:45.752Z,112.50
2018-07-01T11:52:45.748Z,112.50
2018-07-01T11:54:06.749Z,112.50
2018-07-01T11:54:45.737Z,118.13
2018-07-01T11:55:45.733Z,118.13
2018-07-01T11:56:45.734Z,118.13
2018-07-01T11:57:45.730Z,118.13
2018-07-01T11:58:45.730Z,112.50
2018-07-01T12:00:06.726Z,112.50
2018-07-01T12:00:45.722Z,118.13
2018-07-01T12:01:45.758Z,118.13
2018-07-01T12:02:45.719Z,118.13
2018-07-01T12:03:45.721Z,118.13
2018-07-01T12:05:02.954Z,118.13
2018-07-01T12:06:06.711Z,118.13
2018-07-01T12:06:45.705Z,118.13
2018-07-01T12:07:45.703Z,118.13
2018-07-01T12:08:45.699Z,118.13
2018-07-01T12:09:45.692Z,118.13
2018-07-01T12:10:45.692Z,118.13
2018-07-01T12:12:06.697Z,118.13
2018-07-01T12:12:45.681Z,118.13
2018-07-01T12:13:45.733Z,123.75
2018-07-01T12:14:45.678Z,123.75
2018-07-01T12:15:45.674Z,118.13
2018-07-01T12:16:45.675Z,118.13
2018-07-01T12:18:06.676Z,118.13
2018-07-01T12:18:45.667Z,118.13
2018-07-01T12:19:45.669Z,123.75
2018-07-01T12:20:45.667Z,123.75
2018-07-01T12:21:45.664Z,123.75
2018-07-01T12:22:45.661Z,123.75
2018-07-01T12:24:06.667Z,123.75
2018-07-01T12:24:45.651Z,123.75
2018-07-01T12:25:45.650Z,129.38
2018-07-01T12:26:45.646Z,129.38
2018-07-01T12:27:45.644Z,129.38
2018-07-01T12:28:45.672Z,129.38
2018-07-01T12:30:06.651Z,129.38
2018-07-01T12:30:45.633Z,129.38
2018-07-01T12:31:45.635Z,129.38
2018-07-01T12:32:45.631Z,129.38
2018-07-01T12:33:45.627Z,129.38
2018-07-01T12:34:45.689Z,129.38
2018-07-01T12:36:06.630Z,135.00
2018-07-01T12:36:45.618Z,135.00
2018-07-01T12:37:45.618Z,135.00
2018-07-01T12:38:45.613Z,135.00
2018-07-01T12:39:45.621Z,135.00
2018-07-01T12:40:45.610Z,135.00
2018-07-01T12:42:06.645Z,135.00
2018-07-01T12:42:45.610Z,135.00
2018-07-01T12:43:45.604Z,135.00
2018-07-01T12:44:45.601Z,135.00
2018-07-01T12:45:45.599Z,135.00
2018-07-01T12:46:45.594Z,135.00
2018-07-01T12:48:06.691Z,135.00
2018-07-01T12:48:45.595Z,140.63
2018-07-01T12:49:45.586Z,135.00
2018-07-01T12:50:45.582Z,135.00
2018-07-01T12:51:45.590Z,135.00
2018-07-01T12:52:45.582Z,135.00
2018-07-01T12:54:06.584Z,135.00
2018-07-01T12:54:45.578Z,135.00
2018-07-01T12:55:45.578Z,135.00
2018-07-01T12:56:45.574Z,140.63
2018-07-01T12:57:45.575Z,140.63
2018-07-01T12:58:45.567Z,140.63
2018-07-01T13:00:06.577Z,140.63
2018-07-01T13:00:45.564Z,140.63
2018-07-01T13:01:45.560Z,140.63